createdAt,value
2022-12-31T00:00:20.947Z,30.20
2022-12-31T00:01:54.174Z,31.90
2022-12-31T00:03:29.065Z,31.38
2022-12-31T00:05:02.325Z,34.22
2022-12-31T00:06:37.233Z,43.53
2022-12-31T00:08:10.645Z,45.78
2022-12-31T00:09:44.209Z,30.50
2022-12-31T00:11:17.928Z,21.20
2022-12-31T00:12:51.417Z,20.25
2022-12-31T00:14:24.580Z,19.25
2022-12-31T00:16:12.022Z,21.83
2022-12-31T00:17:45.678Z,19.00
2022-12-31T00:19:20.509Z,31.63
2022-12-31T00:20:53.671Z,22.67
2022-12-31T00:22:26.804Z,22.52
2022-12-31T00:24:00.023Z,31.45
2022-12-31T00:25:34.902Z,31.13
2022-12-31T00:27:08.009Z,30.70
2022-12-31T00:28:42.271Z,29.77
2022-12-31T00:30:15.878Z,31.50
2022-12-31T00:31:49.384Z,32.72
2022-12-31T00:33:22.510Z,30.65
2022-12-31T00:34:57.371Z,79.38
2022-12-31T00:36:32.241Z,48.97
2022-12-31T00:38:05.441Z,91.82
2022-12-31T00:39:38.581Z,62.33
2022-12-31T00:41:12.816Z,37.58
2022-12-31T00:42:45.931Z,29.08
2022-12-31T00:44:19.183Z,30.38
2022-12-31T00:45:52.416Z,30.50
2022-12-31T00:47:26.467Z,30.63
2022-12-31T00:48:59.643Z,30.00
2022-12-31T00:50:34.513Z,25.73
2022-12-31T00:52:07.771Z,22.35
2022-12-31T00:53:41.310Z,20.05
2022-12-31T00:55:14.455Z,26.23
2022-12-31T00:56:47.742Z,25.30
2022-12-31T00:58:20.914Z,23.92
2022-12-31T00:59:54.010Z,27.33
2022-12-31T01:01:29.278Z,22.73
2022-12-31T01:03:03.065Z,26.85
2022-12-31T01:04:36.241Z,29.55
2022-12-31T01:06:11.393Z,23.75
2022-12-31T01:07:44.568Z,19.70
2022-12-31T01:09:19.052Z,24.48
2022-12-31T01:11:09.705Z,25.65
2022-12-31T01:12:43.155Z,22.35
2022-12-31T01:14:19.451Z,24.25
2022-12-31T01:15:51.582Z,21.52
2022-12-31T01:17:24.796Z,30.08
2022-12-31T01:19:03.301Z,24.70
2022-12-31T01:20:37.956Z,45.58
2022-12-31T01:22:12.795Z,76.50
2022-12-31T01:23:45.429Z,69.20
2022-12-31T01:25:18.628Z,43.20
2022-12-31T01:26:52.169Z,38.83
2022-12-31T01:28:25.409Z,37.13
2022-12-31T01:29:58.506Z,36.53
2022-12-31T01:31:31.830Z,41.10
2022-12-31T01:33:04.194Z,39.38
2022-12-31T01:34:37.433Z,41.85
2022-12-31T01:36:14.180Z,42.38
2022-12-31T01:37:48.942Z,50.00
2022-12-31T01:39:22.077Z,42.53
2022-12-31T01:40:54.310Z,47.85
2022-12-31T01:42:27.449Z,43.97
2022-12-31T01:44:03.307Z,39.70
2022-12-31T01:45:36.462Z,50.80
2022-12-31T01:47:16.409Z,48.40
2022-12-31T01:48:52.838Z,51.10
2022-12-31T01:50:29.959Z,54.15
2022-12-31T01:52:07.929Z,48.85
2022-12-31T01:53:43.829Z,43.35
2022-12-31T01:55:21.347Z,50.13
2022-12-31T01:56:56.567Z,41.20
2022-12-31T01:58:32.601Z,50.35
2022-12-31T02:00:06.373Z,50.70
2022-12-31T02:01:40.405Z,45.40
2022-12-31T02:03:14.838Z,55.75
2022-12-31T02:04:48.075Z,49.55
2022-12-31T02:06:23.608Z,50.10
2022-12-31T02:07:58.599Z,49.03
2022-12-31T02:09:34.614Z,52.00
2022-12-31T02:11:23.188Z,51.20
2022-12-31T02:12:56.626Z,53.03
2022-12-31T02:14:33.924Z,50.88
2022-12-31T02:16:15.030Z,44.30
2022-12-31T02:17:57.438Z,24.30
2022-12-31T02:20:06.683Z,20.23
2022-12-31T02:21:53.989Z,20.80
2022-12-31T02:24:05.002Z,20.67
2022-12-31T02:25:53.643Z,23.55
2022-12-31T02:27:37.747Z,21.80
2022-12-31T02:29:42.980Z,21.73
2022-12-31T02:31:23.952Z,25.48
2022-12-31T02:33:11.934Z,22.52
2022-12-31T02:34:51.477Z,26.08
2022-12-31T02:36:28.925Z,23.15
2022-12-31T02:38:06.032Z,19.45
2022-12-31T02:39:38.509Z,23.00
2022-12-31T02:41:35.107Z,22.10
2022-12-31T02:43:08.338Z,21.55
2022-12-31T02:44:42.194Z,23.52
2022-12-31T02:46:28.513Z,22.48
2022-12-31T02:48:27.565Z,17.92
2022-12-31T02:50:14.660Z,26.20
2022-12-31T02:51:53.695Z,21.17
2022-12-31T02:53:41.585Z,21.67
2022-12-31T02:55:24.501Z,23.75
2022-12-31T02:57:09.666Z,23.10
2022-12-31T02:59:07.409Z,19.08
2022-12-31T03:01:05.330Z,23.42
2022-12-31T03:02:43.198Z,16.52
2022-12-31T03:04:32.307Z,18.27
2022-12-31T03:06:07.221Z,21.27
2022-12-31T03:07:42.028Z,20.27
2022-12-31T03:09:14.107Z,21.25
2022-12-31T03:10:47.419Z,17.90
2022-12-31T03:12:39.859Z,21.58
2022-12-31T03:14:12.044Z,21.77
2022-12-31T03:15:45.493Z,21.30
2022-12-31T03:17:17.667Z,22.63
2022-12-31T03:19:06.403Z,21.58
2022-12-31T03:20:59.100Z,22.75
2022-12-31T03:22:32.458Z,23.92
2022-12-31T03:24:23.570Z,31.55
2022-12-31T03:25:57.830Z,29.38
2022-12-31T03:27:29.988Z,21.05
2022-12-31T03:29:03.189Z,23.73
2022-12-31T03:30:38.033Z,33.15
2022-12-31T03:32:10.457Z,27.38
2022-12-31T03:33:43.811Z,27.42
2022-12-31T03:35:20.363Z,21.20
2022-12-31T03:36:53.513Z,24.27
2022-12-31T03:38:26.915Z,22.35
2022-12-31T03:39:59.130Z,22.92
2022-12-31T03:41:32.487Z,24.45
2022-12-31T03:43:05.735Z,20.15
2022-12-31T03:44:37.822Z,21.65
2022-12-31T03:46:11.116Z,22.80
2022-12-31T03:47:44.551Z,19.67
2022-12-31T03:49:17.806Z,17.70
2022-12-31T03:50:52.447Z,21.05
2022-12-31T03:52:24.701Z,18.67
2022-12-31T03:53:58.048Z,15.50
2022-12-31T03:55:31.195Z,16.52
2022-12-31T03:57:03.687Z,18.63
2022-12-31T03:58:36.893Z,19.23
2022-12-31T04:00:14.065Z,14.50
2022-12-31T04:01:47.981Z,16.05
2022-12-31T04:03:22.048Z,17.73
2022-12-31T04:04:55.265Z,18.48
2022-12-31T04:06:29.781Z,14.30
2022-12-31T04:08:03.443Z,21.25
2022-12-31T04:09:36.923Z,17.00
2022-12-31T04:11:12.065Z,26.02
2022-12-31T04:12:47.199Z,22.45
2022-12-31T04:14:20.434Z,22.27
2022-12-31T04:15:53.785Z,15.45
2022-12-31T04:17:27.004Z,19.63
2022-12-31T04:19:00.628Z,21.42
2022-12-31T04:20:33.799Z,22.30
2022-12-31T04:22:08.923Z,30.80
2022-12-31T04:23:42.105Z,28.77
2022-12-31T04:25:15.590Z,29.38
2022-12-31T04:26:49.745Z,33.00
2022-12-31T04:28:23.245Z,28.08
2022-12-31T04:29:56.330Z,31.48
2022-12-31T04:31:29.450Z,23.13
2022-12-31T04:33:02.580Z,31.38
2022-12-31T04:34:36.626Z,32.83
2022-12-31T04:36:09.384Z,30.83
2022-12-31T04:37:43.857Z,29.95
2022-12-31T04:39:16.989Z,42.17
2022-12-31T04:41:07.727Z,35.33
2022-12-31T04:42:40.898Z,31.17
2022-12-31T04:44:14.397Z,36.38
2022-12-31T04:45:46.678Z,41.47
2022-12-31T04:47:23.630Z,40.95
2022-12-31T04:48:57.238Z,43.10
2022-12-31T04:50:30.522Z,49.20
2022-12-31T04:52:04.542Z,48.75
2022-12-31T04:53:38.352Z,46.88
2022-12-31T04:55:12.045Z,54.47
2022-12-31T04:56:44.450Z,56.38
2022-12-31T04:58:17.998Z,50.20
2022-12-31T04:59:51.264Z,62.10
2022-12-31T05:01:24.807Z,58.25
2022-12-31T05:02:57.951Z,59.50
2022-12-31T05:04:31.050Z,59.67
2022-12-31T05:06:05.289Z,53.30
2022-12-31T05:07:38.380Z,53.08
2022-12-31T05:09:12.837Z,66.18
2022-12-31T05:10:48.462Z,69.90
2022-12-31T05:12:22.008Z,56.45
2022-12-31T05:13:55.100Z,59.50
2022-12-31T05:15:28.563Z,59.83
2022-12-31T05:17:05.103Z,56.13
2022-12-31T05:18:38.712Z,68.95
2022-12-31T05:20:12.169Z,71.70
2022-12-31T05:22:05.466Z,63.10
2022-12-31T05:23:38.890Z,63.42
2022-12-31T05:25:13.546Z,60.28
2022-12-31T05:26:46.708Z,91.05
2022-12-31T05:28:19.858Z,233.93
2022-12-31T05:29:53.010Z,53.42
2022-12-31T05:31:26.204Z,44.53
2022-12-31T05:32:58.661Z,40.10
2022-12-31T05:34:31.830Z,39.65
2022-12-31T05:36:05.525Z,40.70
2022-12-31T05:37:37.801Z,31.58
2022-12-31T05:39:11.251Z,26.73
2022-12-31T05:40:45.756Z,22.30
2022-12-31T05:42:19.403Z,61.50
2022-12-31T05:43:52.516Z,21.27
2022-12-31T05:45:30.735Z,24.80
2022-12-31T05:47:04.496Z,23.65
2022-12-31T05:48:37.669Z,19.85
2022-12-31T05:50:11.164Z,19.38
2022-12-31T05:51:44.349Z,20.67
2022-12-31T05:53:17.693Z,18.05
2022-12-31T05:54:50.855Z,15.43
2022-12-31T05:56:25.416Z,19.45
2022-12-31T05:57:58.592Z,19.92
2022-12-31T05:59:32.330Z,21.98
2022-12-31T06:01:06.307Z,21.83
2022-12-31T06:02:38.756Z,25.27
2022-12-31T06:04:11.951Z,67.72
2022-12-31T06:05:45.232Z,64.28
2022-12-31T06:07:17.373Z,52.33
2022-12-31T06:08:50.865Z,54.65
2022-12-31T06:10:24.485Z,24.40
2022-12-31T06:11:58.980Z,36.55
2022-12-31T06:13:32.749Z,43.58
2022-12-31T06:15:07.508Z,25.17
2022-12-31T06:16:40.658Z,34.25
2022-12-31T06:18:14.429Z,18.45
2022-12-31T06:19:51.000Z,18.88
2022-12-31T06:21:24.536Z,28.13
2022-12-31T06:22:57.655Z,363.00
2022-12-31T06:24:31.211Z,416.25
2022-12-31T06:26:05.592Z,180.90
2022-12-31T06:27:42.312Z,137.70
2022-12-31T06:29:17.161Z,84.88
2022-12-31T06:30:50.427Z,45.60
2022-12-31T06:32:24.414Z,30.95
2022-12-31T06:33:59.270Z,30.67
2022-12-31T06:35:33.093Z,44.47
2022-12-31T06:37:05.263Z,25.25
2022-12-31T06:38:40.589Z,22.55
2022-12-31T06:40:14.527Z,38.83
2022-12-31T06:41:48.306Z,30.08
2022-12-31T06:43:24.363Z,28.30
2022-12-31T06:44:57.562Z,22.20
2022-12-31T06:46:30.997Z,46.92
2022-12-31T06:48:04.319Z,32.92
2022-12-31T06:49:37.703Z,33.78
2022-12-31T06:51:17.317Z,34.78
2022-12-31T06:52:51.892Z,29.17
2022-12-31T06:54:25.114Z,33.70
2022-12-31T06:55:57.794Z,63.83
2022-12-31T06:57:31.911Z,67.60
2022-12-31T06:59:07.367Z,76.63
2022-12-31T07:00:45.018Z,79.20
2022-12-31T07:02:48.581Z,95.82
2022-12-31T07:05:05.827Z,109.32
2022-12-31T07:06:45.196Z,110.65
2022-12-31T07:08:42.103Z,94.80
2022-12-31T07:10:29.191Z,89.95
2022-12-31T07:12:07.906Z,82.93
2022-12-31T07:14:00.147Z,78.07
2022-12-31T07:15:49.763Z,72.30
2022-12-31T07:17:30.599Z,51.30
2022-12-31T07:19:17.081Z,71.88
2022-12-31T07:20:51.798Z,55.85
2022-12-31T07:22:25.497Z,87.80
2022-12-31T07:23:59.127Z,76.80
2022-12-31T07:25:33.877Z,49.15
2022-12-31T07:27:22.759Z,35.05
2022-12-31T07:29:07.087Z,49.83
2022-12-31T07:30:51.762Z,56.70
2022-12-31T07:32:38.549Z,39.92
2022-12-31T07:34:24.000Z,43.78
2022-12-31T07:36:08.983Z,26.63
2022-12-31T07:37:48.960Z,24.98
2022-12-31T07:39:29.605Z,25.15
2022-12-31T07:41:11.361Z,37.65
2022-12-31T07:43:00.140Z,47.88
2022-12-31T07:44:42.565Z,38.40
2022-12-31T07:46:23.943Z,39.97
2022-12-31T07:48:02.398Z,161.07
2022-12-31T07:49:38.819Z,42.03
2022-12-31T07:51:12.956Z,41.97
2022-12-31T07:52:47.735Z,85.82
2022-12-31T07:54:21.539Z,33.80
2022-12-31T07:55:57.687Z,32.45
2022-12-31T07:57:38.075Z,31.55
2022-12-31T07:59:31.302Z,32.55
2022-12-31T08:01:05.613Z,29.92
2022-12-31T08:03:02.300Z,28.08
2022-12-31T08:04:48.809Z,23.70
2022-12-31T08:06:35.408Z,24.85
2022-12-31T08:08:23.627Z,22.48
2022-12-31T08:10:04.310Z,27.58
2022-12-31T08:11:43.759Z,27.58
2022-12-31T08:13:19.219Z,45.75
2022-12-31T08:14:52.964Z,33.95
2022-12-31T08:16:30.529Z,34.85
2022-12-31T08:18:06.344Z,34.58
2022-12-31T08:19:39.206Z,35.63
2022-12-31T08:21:26.127Z,44.55
2022-12-31T08:23:22.002Z,38.78
2022-12-31T08:25:08.464Z,54.20
2022-12-31T08:26:53.642Z,60.53
2022-12-31T08:28:41.112Z,52.92
2022-12-31T08:30:17.061Z,46.45
2022-12-31T08:31:57.071Z,176.57
2022-12-31T08:33:40.939Z,72.28
2022-12-31T08:35:29.466Z,61.13
2022-12-31T08:37:08.793Z,63.28
2022-12-31T08:38:52.137Z,51.15
2022-12-31T08:40:29.657Z,58.03
2022-12-31T08:42:07.707Z,59.60
2022-12-31T08:43:50.550Z,59.45
2022-12-31T08:45:30.108Z,55.55
2022-12-31T08:47:14.651Z,55.97
2022-12-31T08:48:49.708Z,51.40
2022-12-31T08:50:23.865Z,63.33
2022-12-31T08:51:57.791Z,61.30
2022-12-31T08:53:32.320Z,84.90
2022-12-31T08:55:06.375Z,63.20
2022-12-31T08:56:50.646Z,56.03
2022-12-31T08:58:37.954Z,57.90
2022-12-31T09:00:15.056Z,35.50
2022-12-31T09:02:05.163Z,38.88
2022-12-31T09:03:56.946Z,40.05
2022-12-31T09:05:36.467Z,52.38
2022-12-31T09:07:12.065Z,52.38
2022-12-31T09:08:52.713Z,40.40
2022-12-31T09:10:33.376Z,47.17
2022-12-31T09:12:15.495Z,45.67
2022-12-31T09:14:33.623Z,37.35
2022-12-31T09:16:13.611Z,43.05
2022-12-31T09:17:49.758Z,114.35
2022-12-31T09:19:24.236Z,54.28
2022-12-31T09:20:57.981Z,74.72
2022-12-31T09:22:32.188Z,64.82
2022-12-31T09:24:09.519Z,66.15
2022-12-31T09:25:51.950Z,64.80
2022-12-31T09:27:31.516Z,60.67
2022-12-31T09:29:13.085Z,68.63
2022-12-31T09:30:55.836Z,81.05
2022-12-31T09:32:40.466Z,71.93
2022-12-31T09:34:21.253Z,73.20
2022-12-31T09:35:59.471Z,81.88
2022-12-31T09:37:44.903Z,64.22
2022-12-31T09:39:27.609Z,64.85
2022-12-31T09:41:14.915Z,73.05
2022-12-31T09:43:10.791Z,90.15
2022-12-31T09:45:27.137Z,100.43
2022-12-31T17:07:46.335Z,83.13
2022-12-31T17:09:23.406Z,92.90
2022-12-31T17:10:57.621Z,75.10
2022-12-31T17:13:00.600Z,71.03
2022-12-31T17:14:30.598Z,80.68
2022-12-31T17:16:04.452Z,94.35
2022-12-31T17:17:38.215Z,69.15
2022-12-31T17:19:32.685Z,57.08
2022-12-31T17:21:09.468Z,57.17
2022-12-31T17:22:44.101Z,68.45
2022-12-31T17:24:18.903Z,54.33
2022-12-31T17:25:59.203Z,54.20
2022-12-31T17:27:33.352Z,37.08
2022-12-31T17:29:08.030Z,35.08
2022-12-31T17:30:41.925Z,29.55
2022-12-31T17:32:30.499Z,27.35
2022-12-31T17:34:20.589Z,29.58
2022-12-31T17:35:57.154Z,30.48
2022-12-31T17:37:31.458Z,33.60
2022-12-31T17:39:19.234Z,35.55
2022-12-31T17:40:54.683Z,34.28
2022-12-31T17:42:32.478Z,37.05
2022-12-31T17:44:05.857Z,36.40
2022-12-31T17:45:40.513Z,64.25
2022-12-31T17:47:14.979Z,42.47
2022-12-31T17:48:52.937Z,59.00
2022-12-31T17:50:27.909Z,47.03
2022-12-31T17:52:01.136Z,40.45
2022-12-31T17:53:34.370Z,44.22
2022-12-31T17:55:09.388Z,43.70
2022-12-31T17:56:42.770Z,40.55
2022-12-31T17:58:26.039Z,34.40
2022-12-31T18:00:06.228Z,40.72
2022-12-31T18:01:49.094Z,36.53
2022-12-31T18:03:22.486Z,37.30
2022-12-31T18:04:55.642Z,32.50
2022-12-31T18:06:28.764Z,39.92
2022-12-31T18:08:02.457Z,52.45
2022-12-31T18:09:35.689Z,54.15
2022-12-31T18:11:15.715Z,65.65
2022-12-31T18:12:50.355Z,82.72
2022-12-31T18:14:23.542Z,54.50
2022-12-31T18:15:56.793Z,87.18
2022-12-31T18:17:30.297Z,49.80
2022-12-31T18:19:03.559Z,61.22
2022-12-31T18:20:36.749Z,60.50
2022-12-31T18:22:14.278Z,51.90
2022-12-31T18:23:49.441Z,47.70
2022-12-31T18:25:24.887Z,64.75
2022-12-31T18:27:01.087Z,78.53
2022-12-31T18:28:35.971Z,87.18
2022-12-31T18:30:11.244Z,54.78
2022-12-31T18:31:46.815Z,84.95
2022-12-31T18:33:22.481Z,61.30
2022-12-31T18:34:55.865Z,67.03
2022-12-31T18:36:30.185Z,75.40
2022-12-31T18:38:03.314Z,65.80
2022-12-31T18:39:36.915Z,59.80
2022-12-31T18:41:18.604Z,74.80
2022-12-31T18:42:53.130Z,65.97
2022-12-31T18:44:26.272Z,77.10
2022-12-31T18:45:59.999Z,73.35
2022-12-31T18:47:37.623Z,60.10
2022-12-31T18:49:11.452Z,55.58
2022-12-31T18:50:45.297Z,73.53
2022-12-31T18:52:20.929Z,190.32
2022-12-31T18:53:54.249Z,43.25
2022-12-31T18:55:40.349Z,38.50
2022-12-31T18:57:14.399Z,38.15
2022-12-31T18:58:49.588Z,36.25
2022-12-31T19:00:23.033Z,39.17
2022-12-31T19:01:59.262Z,58.47
2022-12-31T19:03:32.536Z,52.80
2022-12-31T19:05:22.131Z,96.88
2022-12-31T19:06:56.083Z,41.67
2022-12-31T19:08:29.399Z,39.83
2022-12-31T19:10:02.658Z,37.90
2022-12-31T19:11:35.972Z,33.03
2022-12-31T19:13:13.075Z,58.45
2022-12-31T19:14:47.627Z,43.47
2022-12-31T19:16:20.782Z,34.45
2022-12-31T19:17:54.048Z,27.02
2022-12-31T19:19:27.286Z,27.52
2022-12-31T19:21:00.461Z,30.05
2022-12-31T19:22:33.577Z,26.85
2022-12-31T19:24:13.218Z,28.73
2022-12-31T19:25:47.903Z,31.05
2022-12-31T19:27:21.209Z,29.00
2022-12-31T19:28:54.327Z,34.03
2022-12-31T19:30:30.834Z,37.10
2022-12-31T19:32:04.002Z,39.72
2022-12-31T19:33:37.536Z,32.15
2022-12-31T19:35:12.671Z,31.73
2022-12-31T19:36:45.842Z,30.52
2022-12-31T19:38:22.148Z,31.55
2022-12-31T19:39:55.684Z,33.33
2022-12-31T19:41:28.845Z,33.05
2022-12-31T19:43:02.192Z,40.30
2022-12-31T19:44:35.364Z,42.90
2022-12-31T19:46:13.747Z,37.05
2022-12-31T19:47:47.668Z,44.45
2022-12-31T19:49:21.061Z,41.35
2022-12-31T19:50:55.170Z,51.55
2022-12-31T19:52:28.284Z,50.50
2022-12-31T19:54:01.475Z,39.35
2022-12-31T19:55:34.966Z,42.85
2022-12-31T19:57:08.104Z,49.85
2022-12-31T19:58:41.423Z,47.38
2022-12-31T20:00:17.083Z,128.95
2022-12-31T20:01:51.774Z,95.93
2022-12-31T20:03:25.649Z,79.55
2022-12-31T20:04:59.124Z,85.78
2022-12-31T20:06:32.322Z,86.07
2022-12-31T20:08:05.902Z,66.78
2022-12-31T20:09:39.321Z,90.75
2022-12-31T20:11:14.709Z,111.57
2022-12-31T20:12:47.854Z,64.60
2022-12-31T20:14:21.286Z,46.28
2022-12-31T20:15:54.668Z,47.83
2022-12-31T20:17:29.242Z,53.83
2022-12-31T20:19:02.430Z,49.03
2022-12-31T20:20:35.809Z,84.47
2022-12-31T20:22:09.101Z,68.80
2022-12-31T20:23:42.237Z,65.03
2022-12-31T20:25:19.245Z,56.58
2022-12-31T20:26:55.362Z,53.63
2022-12-31T20:28:28.915Z,54.70
2022-12-31T20:30:21.079Z,44.58
2022-12-31T20:31:54.429Z,44.00
2022-12-31T20:33:31.578Z,49.40
2022-12-31T20:35:30.586Z,34.92
2022-12-31T20:37:03.812Z,43.15
2022-12-31T20:38:37.300Z,53.10
2022-12-31T20:40:12.172Z,111.97
2022-12-31T20:41:45.467Z,112.95
2022-12-31T20:43:18.688Z,129.40
2022-12-31T20:44:51.953Z,88.78
2022-12-31T20:46:27.271Z,85.97
2022-12-31T20:48:06.640Z,106.38
2022-12-31T20:50:10.412Z,90.68
2022-12-31T20:51:36.705Z,76.45
2022-12-31T20:53:09.823Z,106.45
2022-12-31T20:54:42.999Z,149.00
2022-12-31T20:56:16.998Z,100.30
2022-12-31T20:57:50.244Z,108.55
2022-12-31T20:59:23.410Z,109.03
2022-12-31T21:00:56.575Z,112.03
2022-12-31T21:02:40.671Z,91.50
2022-12-31T21:04:15.809Z,60.50
2022-12-31T21:05:51.452Z,44.13
2022-12-31T21:07:24.885Z,48.30
2022-12-31T21:08:59.856Z,42.00
2022-12-31T21:10:34.651Z,54.47
2022-12-31T21:12:25.553Z,46.85
2022-12-31T21:13:59.631Z,32.55
2022-12-31T21:15:33.069Z,31.60
2022-12-31T21:17:06.299Z,28.85
2022-12-31T21:18:48.737Z,36.60
2022-12-31T21:20:21.916Z,36.05
2022-12-31T21:21:56.764Z,35.80
2022-12-31T21:23:29.976Z,34.15
2022-12-31T21:25:03.607Z,33.05
2022-12-31T21:26:36.780Z,34.20
2022-12-31T21:28:10.382Z,28.98
2022-12-31T21:30:16.450Z,31.40
2022-12-31T21:31:36.779Z,29.55
2022-12-31T21:33:10.039Z,24.35
2022-12-31T21:34:43.310Z,25.02
2022-12-31T21:36:17.433Z,27.23
2022-12-31T21:37:59.022Z,28.60
2022-12-31T21:39:33.942Z,24.77
2022-12-31T21:41:08.954Z,22.42
2022-12-31T21:42:42.233Z,23.13
2022-12-31T21:44:15.558Z,21.92
2022-12-31T21:45:48.713Z,23.23
2022-12-31T21:47:45.664Z,28.10
2022-12-31T21:49:20.548Z,25.88
2022-12-31T21:50:55.592Z,26.60
2022-12-31T21:52:27.854Z,43.42
2022-12-31T21:54:02.860Z,31.58
2022-12-31T21:55:56.899Z,35.78
2022-12-31T21:57:37.489Z,37.75
2022-12-31T21:59:40.136Z,32.00
2022-12-31T22:01:37.536Z,82.90
2022-12-31T22:03:27.060Z,62.05
2022-12-31T22:05:02.334Z,36.70
2022-12-31T22:06:37.720Z,46.60
2022-12-31T22:08:11.516Z,130.60
2022-12-31T22:09:46.027Z,276.95
2022-12-31T22:11:21.348Z,278.40
2022-12-31T22:12:54.683Z,225.13
2022-12-31T22:14:27.939Z,374.90
2022-12-31T22:16:05.405Z,281.45
2022-12-31T22:17:39.141Z,315.60
2022-12-31T22:19:12.396Z,290.75
2022-12-31T22:20:45.772Z,291.27
2022-12-31T22:22:18.959Z,321.13
2022-12-31T22:23:53.561Z,404.17
2022-12-31T22:25:28.129Z,249.52
2022-12-31T22:27:29.487Z,226.95
2022-12-31T22:28:59.107Z,227.35
2022-12-31T22:30:32.338Z,157.32
2022-12-31T22:32:05.931Z,103.18
2022-12-31T22:33:38.989Z,87.93
2022-12-31T22:35:12.183Z,109.75
2022-12-31T22:36:45.375Z,124.40
2022-12-31T22:38:18.640Z,135.70
2022-12-31T22:39:51.806Z,126.75
2022-12-31T22:41:27.750Z,125.13
2022-12-31T22:43:01.007Z,129.38
2022-12-31T22:44:34.235Z,127.03
2022-12-31T22:46:09.900Z,303.15
2022-12-31T22:47:43.124Z,369.13
2022-12-31T22:49:17.905Z,263.02
2022-12-31T22:50:57.015Z,297.00
2022-12-31T22:52:30.193Z,234.95
2022-12-31T22:54:03.329Z,263.30
2022-12-31T22:55:36.711Z,201.70
2022-12-31T22:57:17.831Z,200.60
2022-12-31T22:58:53.080Z,203.77
2022-12-31T23:00:39.599Z,208.93
2022-12-31T23:02:12.769Z,214.10
2022-12-31T23:03:46.186Z,213.82
2022-12-31T23:05:19.456Z,206.13
2022-12-31T23:06:52.674Z,200.65
2022-12-31T23:08:25.740Z,150.88
2022-12-31T23:10:16.611Z,138.30
2022-12-31T23:11:50.124Z,137.45
2022-12-31T23:13:49.477Z,131.10
2022-12-31T23:15:41.331Z,106.75
2022-12-31T23:17:35.443Z,84.13
2022-12-31T23:19:26.597Z,65.57
2022-12-31T23:21:17.318Z,91.47
2022-12-31T23:23:07.850Z,55.33
2022-12-31T23:24:41.141Z,57.33
2022-12-31T23:26:14.601Z,56.15
2022-12-31T23:27:47.746Z,65.63
2022-12-31T23:29:22.376Z,64.25
2022-12-31T23:30:55.615Z,68.30
2022-12-31T23:32:28.781Z,59.65
2022-12-31T23:34:01.930Z,97.32
2022-12-31T23:35:36.812Z,79.47
2022-12-31T23:37:11.018Z,93.03
2022-12-31T23:38:44.236Z,61.15
2022-12-31T23:40:34.232Z,46.05
2022-12-31T23:42:07.834Z,38.75
2022-12-31T23:43:41.346Z,126.22
2022-12-31T23:45:16.171Z,45.35
2022-12-31T23:46:49.555Z,47.50
2022-12-31T23:48:22.747Z,44.22
2022-12-31T23:49:55.882Z,45.25
2022-12-31T23:51:29.368Z,45.50
2022-12-31T23:53:02.473Z,44.13
2022-12-31T23:54:36.118Z,48.42
2022-12-31T23:56:16.154Z,42.08
2022-12-31T23:57:52.467Z,45.55
2022-12-31T23:59:25.692Z,43.92
